メインページ
METAR-TAF:

METAR-TAF

空港 :

コナクリ国際空港

コナクリ, ギニア

緯度: 09-34N, 経度: 013-37W, 海抜: 26m

現時点の気象観測

当レポートは24分前の09:00(UTC)に作成
無風
気温 24°C
湿度 100%
気圧 1013 hPa
視程10km以上
高度1500ftの千切れ雲あり
高度10000ftの千切れ雲あり

METAR: GUCY 190900Z 00000KT 9999 BKN015 BKN100 24/24 Q1013 NOSIG

時間: 09:24 (09:24 UTC)

予報

当レポートは4時間24分前の05:00(UTC)に作成
予報は19日の 06時(UTC)から 20日の 12時(UTC)まで有効
西の風 6kt
視程10km以上
高度1500ftの雲は散在している
高度11000ftの雲は散在している
19日の 18時(UTC)から 19日の 24時(UTC)まで一時的に
南/南東の風 12kt
視程: 5000m
高度1300ftの千切れ雲あり
高度2000ftの雲はほとんどない, 積乱雲.
高度10000ftの千切れ雲あり
激しい雷雨, 小雨
20日の 03時(UTC)から 20日の 07時(UTC)まで徐々に
変向風 2kt
視程: 8000m
高度1200ftの千切れ雲あり
高度9000ftの曇り
小雨

TAF: GUCY 190500Z 1906/2012 27006KT 9999 SCT015 SCT110 TEMPO 1918/1924 16012KT 5000 -TSRA BKN013 FEW020CB BKN100 BECMG 2003/2007 VRB02KT 8000 -RA BKN012 OVC090

4,000以上の空港の気象観測と天気予報(METAR報とTAF報)

利用可能な観測所は地図上に黄色い丸と赤い丸で示す。

丸の上にカーソルを重ねると観測所名を参照できる。

次にクリックすると気象観測と天気予報を参照できる。

マップの切り替え:黒色「×」印の緑ボタンをクリックして拡大、「-」印の緑ボタンをクリックして縮小、緑色の三角印をクリックして隣りの地図に切り替え


METAR-TAF: